Oilton, Texas
Current Conditions -  °F | °C
As of 4:35 PM on Thursday 23 Oct 2014 (Local Time) from KHBV Reporting Station
Scattered Clouds Scattered Clouds  
Wind Chill: 83°   Ceiling: Unl
Heat Index: 83°   Visibility: 10mi
Dew Point: 56°   Wind: 0mph
Humidity: 39%   Direction: NA
Pressure: 30.05"   Gusts: NA
Location:  27.47°N, 98.97°W
Report Text: KHBV 232135Z AUTO 00000KT 10SM SCT100 29/13 A3005 RMK AO2 T02860134
Loading
Personal Weather Stations






























Interactive Weather Map
Tropical Storm Tracking
New forecast layout! Learn more

10-Day Weather Forecast

Advertisements
Track Severe Weather on mobile